sensor_id;sensor_type;location;lat;lon;timestamp;temperature;humidity
21805;DHT22;11064;47.102;15.452;2023-05-10T04:01:22;6.00;99.90
21805;DHT22;11064;47.102;15.452;2023-05-10T04:03:48;6.10;99.90
21805;DHT22;11064;47.102;15.452;2023-05-10T04:06:14;6.10;99.90
21805;DHT22;11064;47.102;15.452;2023-05-10T04:08:40;6.20;99.90
21805;DHT22;11064;47.102;15.452;2023-05-10T04:11:10;6.30;99.90
21805;DHT22;11064;47.102;15.452;2023-05-10T04:13:36;6.30;99.90
21805;DHT22;11064;47.102;15.452;2023-05-10T04:16:02;6.40;99.90
21805;DHT22;11064;47.102;15.452;2023-05-10T04:18:28;6.50;99.90
21805;DHT22;11064;47.102;15.452;2023-05-10T04:20:54;6.60;99.90
21805;DHT22;11064;47.102;15.452;2023-05-10T04:23:20;6.70;99.90
21805;DHT22;11064;47.102;15.452;2023-05-10T04:25:45;6.80;99.90
21805;DHT22;11064;47.102;15.452;2023-05-10T04:28:11;7.00;99.90
21805;DHT22;11064;47.102;15.452;2023-05-10T04:30:37;7.10;99.90
21805;DHT22;11064;47.102;15.452;2023-05-10T04:33:03;7.20;99.90
21805;DHT22;11064;47.102;15.452;2023-05-10T04:35:28;7.30;99.90
21805;DHT22;11064;47.102;15.452;2023-05-10T04:37:55;7.50;99.90
21805;DHT22;11064;47.102;15.452;2023-05-10T04:40:20;7.70;99.90
21805;DHT22;11064;47.102;15.452;2023-05-10T04:42:46;8.10;99.90
21805;DHT22;11064;47.102;15.452;2023-05-10T04:45:12;8.50;99.90
21805;DHT22;11064;47.102;15.452;2023-05-10T04:47:40;9.30;99.90
21805;DHT22;11064;47.102;15.452;2023-05-10T04:50:06;10.20;99.90
21805;DHT22;11064;47.102;15.452;2023-05-10T04:52:33;11.30;99.90
21805;DHT22;11064;47.102;15.452;2023-05-10T04:54:59;12.40;99.90
21805;DHT22;11064;47.102;15.452;2023-05-10T04:57:24;13.30;99.90
21805;DHT22;11064;47.102;15.452;2023-05-10T04:59:50;13.80;99.90
21805;DHT22;11064;47.102;15.452;2023-05-10T05:02:16;13.50;99.90
21805;DHT22;11064;47.102;15.452;2023-05-10T05:04:42;12.90;99.90
21805;DHT22;11064;47.102;15.452;2023-05-10T05:07:08;12.30;99.90
21805;DHT22;11064;47.102;15.452;2023-05-10T05:09:35;11.70;99.90
21805;DHT22;11064;47.102;15.452;2023-05-10T05:12:01;11.10;99.90
21805;DHT22;11064;47.102;15.452;2023-05-10T05:14:26;10.70;99.90
21805;DHT22;11064;47.102;15.452;2023-05-10T05:16:53;10.50;99.90
21805;DHT22;11064;47.102;15.452;2023-05-10T05:19:18;10.30;99.90
21805;DHT22;11064;47.102;15.452;2023-05-10T05:21:44;10.30;99.90
21805;DHT22;11064;47.102;15.452;2023-05-10T05:24:10;10.20;99.90
21805;DHT22;11064;47.102;15.452;2023-05-10T05:26:38;10.20;99.90
21805;DHT22;11064;47.102;15.452;2023-05-10T05:29:04;10.10;99.90
21805;DHT22;11064;47.102;15.452;2023-05-10T05:31:30;10.70;99.90
21805;DHT22;11064;47.102;15.452;2023-05-10T05:33:56;11.80;99.90
21805;DHT22;11064;47.102;15.452;2023-05-10T05:36:22;13.60;99.90
21805;DHT22;11064;47.102;15.452;2023-05-10T05:38:47;16.20;98.30
21805;DHT22;11064;47.102;15.452;2023-05-10T05:41:13;17.70;91.30
21805;DHT22;11064;47.102;15.452;2023-05-10T05:43:39;17.20;84.40
21805;DHT22;11064;47.102;15.452;2023-05-10T05:46:05;17.40;86.30
21805;DHT22;11064;47.102;15.452;2023-05-10T05:48:31;16.40;87.30
21805;DHT22;11064;47.102;15.452;2023-05-10T05:50:57;15.90;90.00
21805;DHT22;11064;47.102;15.452;2023-05-10T05:53:23;14.60;92.40
21805;DHT22;11064;47.102;15.452;2023-05-10T05:55:57;13.90;94.10
21805;DHT22;11064;47.102;15.452;2023-05-10T05:58:24;13.40;96.40
21805;DHT22;11064;47.102;15.452;2023-05-10T06:00:51;13.20;97.80
21805;DHT22;11064;47.102;15.452;2023-05-10T06:03:17;12.80;99.50
21805;DHT22;11064;47.102;15.452;2023-05-10T06:05:43;12.90;99.90
21805;DHT22;11064;47.102;15.452;2023-05-10T06:08:09;13.40;99.90
21805;DHT22;11064;47.102;15.452;2023-05-10T06:10:35;13.50;98.90
21805;DHT22;11064;47.102;15.452;2023-05-10T06:13:02;13.70;99.90
21805;DHT22;11064;47.102;15.452;2023-05-10T06:15:28;14.00;99.20
21805;DHT22;11064;47.102;15.452;2023-05-10T06:17:54;14.20;98.00
21805;DHT22;11064;47.102;15.452;2023-05-10T06:20:20;14.20;98.10
21805;DHT22;11064;47.102;15.452;2023-05-10T06:22:45;14.30;97.40
21805;DHT22;11064;47.102;15.452;2023-05-10T06:25:11;13.90;97.50
21805;DHT22;11064;47.102;15.452;2023-05-10T06:27:37;14.20;97.50
21805;DHT22;11064;47.102;15.452;2023-05-10T06:30:04;14.10;97.50
21805;DHT22;11064;47.102;15.452;2023-05-10T06:32:30;14.00;96.90
21805;DHT22;11064;47.102;15.452;2023-05-10T06:34:56;14.10;97.00
21805;DHT22;11064;47.102;15.452;2023-05-10T06:37:22;13.80;97.20
21805;DHT22;11064;47.102;15.452;2023-05-10T06:39:48;14.00;98.50
21805;DHT22;11064;47.102;15.452;2023-05-10T06:42:13;14.20;97.70
21805;DHT22;11064;47.102;15.452;2023-05-10T06:44:39;14.40;97.60
21805;DHT22;11064;47.102;15.452;2023-05-10T06:47:05;14.50;96.50
21805;DHT22;11064;47.102;15.452;2023-05-10T06:49:31;15.00;96.80
21805;DHT22;11064;47.102;15.452;2023-05-10T06:51:56;15.20;96.10
21805;DHT22;11064;47.102;15.452;2023-05-10T06:54:22;15.30;93.60
21805;DHT22;11064;47.102;15.452;2023-05-10T06:56:48;15.90;93.80
21805;DHT22;11064;47.102;15.452;2023-05-10T06:59:14;16.30;93.60
21805;DHT22;11064;47.102;15.452;2023-05-10T07:01:42;16.40;90.70
21805;DHT22;11064;47.102;15.452;2023-05-10T07:04:08;16.40;92.30
21805;DHT22;11064;47.102;15.452;2023-05-10T07:06:34;16.70;91.00
21805;DHT22;11064;47.102;15.452;2023-05-10T07:09:00;16.90;90.30
21805;DHT22;11064;47.102;15.452;2023-05-10T07:11:26;16.90;90.00
21805;DHT22;11064;47.102;15.452;2023-05-10T07:13:52;17.30;88.90
21805;DHT22;11064;47.102;15.452;2023-05-10T07:16:18;17.40;88.00
21805;DHT22;11064;47.102;15.452;2023-05-10T07:18:44;17.30;89.70
21805;DHT22;11064;47.102;15.452;2023-05-10T07:21:10;17.70;89.00
21805;DHT22;11064;47.102;15.452;2023-05-10T07:23:35;17.70;86.00
21805;DHT22;11064;47.102;15.452;2023-05-10T07:26:01;16.90;87.80
21805;DHT22;11064;47.102;15.452;2023-05-10T07:28:27;16.70;89.80
21805;DHT22;11064;47.102;15.452;2023-05-10T07:30:53;16.50;91.40
21805;DHT22;11064;47.102;15.452;2023-05-10T07:33:19;16.40;91.20
21805;DHT22;11064;47.102;15.452;2023-05-10T07:35:45;16.60;90.40
21805;DHT22;11064;47.102;15.452;2023-05-10T07:38:11;16.70;90.80
21805;DHT22;11064;47.102;15.452;2023-05-10T07:40:37;17.20;89.80
21805;DHT22;11064;47.102;15.452;2023-05-10T07:43:04;16.90;91.00
21805;DHT22;11064;47.102;15.452;2023-05-10T07:45:29;16.90;91.10
21805;DHT22;11064;47.102;15.452;2023-05-10T07:47:55;16.90;90.10
21805;DHT22;11064;47.102;15.452;2023-05-10T07:50:21;17.00;91.20
21805;DHT22;11064;47.102;15.452;2023-05-10T07:52:47;16.90;90.40
21805;DHT22;11064;47.102;15.452;2023-05-10T07:55:13;17.00;90.50
21805;DHT22;11064;47.102;15.452;2023-05-10T07:57:39;17.40;90.40
21805;DHT22;11064;47.102;15.452;2023-05-10T08:00:06;17.50;87.40
21805;DHT22;11064;47.102;15.452;2023-05-10T08:02:35;17.30;88.30
21805;DHT22;11064;47.102;15.452;2023-05-10T08:05:01;17.90;88.50
21805;DHT22;11064;47.102;15.452;2023-05-10T08:07:27;18.50;88.50
21805;DHT22;11064;47.102;15.452;2023-05-10T08:09:53;18.40;83.70
21805;DHT22;11064;47.102;15.452;2023-05-10T08:12:18;19.00;81.70
21805;DHT22;11064;47.102;15.452;2023-05-10T08:14:44;18.70;82.50
21805;DHT22;11064;47.102;15.452;2023-05-10T08:17:10;18.30;83.00
21805;DHT22;11064;47.102;15.452;2023-05-10T08:19:36;18.80;80.00
21805;DHT22;11064;47.102;15.452;2023-05-10T08:22:02;18.80;78.60
21805;DHT22;11064;47.102;15.452;2023-05-10T08:24:28;19.10;81.00
21805;DHT22;11064;47.102;15.452;2023-05-10T08:26:53;19.20;79.00
21805;DHT22;11064;47.102;15.452;2023-05-10T08:29:19;19.30;80.50
21805;DHT22;11064;47.102;15.452;2023-05-10T08:31:45;19.50;79.40
21805;DHT22;11064;47.102;15.452;2023-05-10T08:34:11;19.80;80.20
21805;DHT22;11064;47.102;15.452;2023-05-10T08:36:37;19.70;75.40
21805;DHT22;11064;47.102;15.452;2023-05-10T08:39:03;19.70;74.90
21805;DHT22;11064;47.102;15.452;2023-05-10T08:41:29;20.40;73.30
21805;DHT22;11064;47.102;15.452;2023-05-10T08:43:59;20.00;71.10
21805;DHT22;11064;47.102;15.452;2023-05-10T08:46:29;20.30;74.20
21805;DHT22;11064;47.102;15.452;2023-05-10T08:48:57;20.70;74.30
21805;DHT22;11064;47.102;15.452;2023-05-10T08:51:26;20.90;68.10
21805;DHT22;11064;47.102;15.452;2023-05-10T08:53:53;21.20;67.00
21805;DHT22;11064;47.102;15.452;2023-05-10T08:56:19;21.10;65.40
21805;DHT22;11064;47.102;15.452;2023-05-10T08:58:46;21.20;65.50
21805;DHT22;11064;47.102;15.452;2023-05-10T09:01:13;20.50;66.20
21805;DHT22;11064;47.102;15.452;2023-05-10T09:03:41;21.40;68.00
21805;DHT22;11064;47.102;15.452;2023-05-10T09:06:07;22.00;64.40
21805;DHT22;11064;47.102;15.452;2023-05-10T09:08:34;21.90;59.10
21805;DHT22;11064;47.102;15.452;2023-05-10T09:11:00;21.80;61.80
21805;DHT22;11064;47.102;15.452;2023-05-10T09:13:27;21.80;61.50
21805;DHT22;11064;47.102;15.452;2023-05-10T09:15:54;21.70;63.20
21805;DHT22;11064;47.102;15.452;2023-05-10T09:18:20;22.20;59.20
21805;DHT22;11064;47.102;15.452;2023-05-10T09:20:45;22.40;59.90
21805;DHT22;11064;47.102;15.452;2023-05-10T09:23:11;22.00;58.00
21805;DHT22;11064;47.102;15.452;2023-05-10T09:25:38;21.60;59.30
21805;DHT22;11064;47.102;15.452;2023-05-10T09:28:07;22.30;57.00
21805;DHT22;11064;47.102;15.452;2023-05-10T09:30:34;22.30;56.20
21805;DHT22;11064;47.102;15.452;2023-05-10T09:33:00;22.10;57.70
21805;DHT22;11064;47.102;15.452;2023-05-10T09:35:31;22.10;59.10
21805;DHT22;11064;47.102;15.452;2023-05-10T09:38:02;22.40;57.20
21805;DHT22;11064;47.102;15.452;2023-05-10T09:40:30;22.50;57.90
21805;DHT22;11064;47.102;15.452;2023-05-10T09:43:01;21.70;57.50
21805;DHT22;11064;47.102;15.452;2023-05-10T09:45:30;21.70;59.40
21805;DHT22;11064;47.102;15.452;2023-05-10T09:47:57;20.90;60.40
21805;DHT22;11064;47.102;15.452;2023-05-10T09:50:23;21.00;62.60
21805;DHT22;11064;47.102;15.452;2023-05-10T09:52:57;21.30;64.30
21805;DHT22;11064;47.102;15.452;2023-05-10T09:55:38;21.90;60.10
21805;DHT22;11064;47.102;15.452;2023-05-10T09:58:04;22.00;57.60
21805;DHT22;11064;47.102;15.452;2023-05-10T10:00:39;21.80;60.80
21805;DHT22;11064;47.102;15.452;2023-05-10T10:03:11;22.20;62.70
21805;DHT22;11064;47.102;15.452;2023-05-10T10:05:40;22.00;57.90
21805;DHT22;11064;47.102;15.452;2023-05-10T10:08:08;23.00;58.20
21805;DHT22;11064;47.102;15.452;2023-05-10T10:10:34;22.90;55.80
21805;DHT22;11064;47.102;15.452;2023-05-10T10:13:00;22.40;59.10
21805;DHT22;11064;47.102;15.452;2023-05-10T10:15:26;21.40;59.40
21805;DHT22;11064;47.102;15.452;2023-05-10T10:17:53;22.00;61.60
21805;DHT22;11064;47.102;15.452;2023-05-10T10:20:20;21.80;59.20
21805;DHT22;11064;47.102;15.452;2023-05-10T10:22:47;22.00;55.10
21805;DHT22;11064;47.102;15.452;2023-05-10T10:25:15;21.90;57.10
21805;DHT22;11064;47.102;15.452;2023-05-10T10:30:44;21.30;61.80
21805;DHT22;11064;47.102;15.452;2023-05-10T10:36:05;21.30;56.00
21805;DHT22;11064;47.102;15.452;2023-05-10T10:38:55;21.60;55.80
21805;DHT22;11064;47.102;15.452;2023-05-10T10:41:35;21.00;55.30
21805;DHT22;11064;47.102;15.452;2023-05-10T10:55:04;22.60;56.30
21805;DHT22;11064;47.102;15.452;2023-05-10T10:57:50;22.50;56.40
21805;DHT22;11064;47.102;15.452;2023-05-10T11:00:33;22.60;54.10
21805;DHT22;11064;47.102;15.452;2023-05-10T11:03:05;23.30;56.00
21805;DHT22;11064;47.102;15.452;2023-05-10T11:05:37;22.90;56.50
21805;DHT22;11064;47.102;15.452;2023-05-10T11:08:15;23.20;54.40
21805;DHT22;11064;47.102;15.452;2023-05-10T11:10:51;22.80;55.40
21805;DHT22;11064;47.102;15.452;2023-05-10T11:13:47;23.10;59.10
21805;DHT22;11064;47.102;15.452;2023-05-10T11:16:21;23.00;55.70
21805;DHT22;11064;47.102;15.452;2023-05-10T11:19:03;23.00;57.50
21805;DHT22;11064;47.102;15.452;2023-05-10T11:21:30;23.20;56.10
21805;DHT22;11064;47.102;15.452;2023-05-10T11:23:57;23.30;55.40
21805;DHT22;11064;47.102;15.452;2023-05-10T11:26:34;22.90;56.70
21805;DHT22;11064;47.102;15.452;2023-05-10T11:29:01;22.40;57.60
21805;DHT22;11064;47.102;15.452;2023-05-10T11:31:28;22.70;58.90
21805;DHT22;11064;47.102;15.452;2023-05-10T11:33:56;22.60;58.90
21805;DHT22;11064;47.102;15.452;2023-05-10T11:36:33;22.40;56.40
21805;DHT22;11064;47.102;15.452;2023-05-10T11:39:00;22.20;58.10
21805;DHT22;11064;47.102;15.452;2023-05-10T11:41:27;21.30;60.30
21805;DHT22;11064;47.102;15.452;2023-05-10T11:43:54;20.90;62.30
21805;DHT22;11064;47.102;15.452;2023-05-10T11:46:23;20.90;64.20
21805;DHT22;11064;47.102;15.452;2023-05-10T11:49:07;20.60;63.60
21805;DHT22;11064;47.102;15.452;2023-05-10T11:51:35;20.40;66.40
21805;DHT22;11064;47.102;15.452;2023-05-10T11:54:09;19.90;67.30
21805;DHT22;11064;47.102;15.452;2023-05-10T11:56:40;20.10;66.90
21805;DHT22;11064;47.102;15.452;2023-05-10T11:59:06;20.20;67.90
21805;DHT22;11064;47.102;15.452;2023-05-10T12:01:33;20.00;67.60
21805;DHT22;11064;47.102;15.452;2023-05-10T12:04:00;20.10;66.70
21805;DHT22;11064;47.102;15.452;2023-05-10T12:06:28;20.20;66.60
21805;DHT22;11064;47.102;15.452;2023-05-10T12:08:55;20.30;66.60
21805;DHT22;11064;47.102;15.452;2023-05-10T12:11:25;20.50;65.00
21805;DHT22;11064;47.102;15.452;2023-05-10T12:13:51;20.10;64.90
21805;DHT22;11064;47.102;15.452;2023-05-10T12:16:18;20.00;66.50
21805;DHT22;11064;47.102;15.452;2023-05-10T12:18:48;20.00;66.00
21805;DHT22;11064;47.102;15.452;2023-05-10T12:21:15;20.10;67.60
21805;DHT22;11064;47.102;15.452;2023-05-10T12:23:41;20.40;66.90
21805;DHT22;11064;47.102;15.452;2023-05-10T12:26:09;20.00;67.30
21805;DHT22;11064;47.102;15.452;2023-05-10T12:28:36;19.80;64.90
21805;DHT22;11064;47.102;15.452;2023-05-10T12:31:03;20.10;66.50
21805;DHT22;11064;47.102;15.452;2023-05-10T12:33:37;20.30;66.70
21805;DHT22;11064;47.102;15.452;2023-05-10T12:36:13;20.50;66.00
21805;DHT22;11064;47.102;15.452;2023-05-10T12:38:45;20.40;65.50
21805;DHT22;11064;47.102;15.452;2023-05-10T12:41:16;20.10;66.60
21805;DHT22;11064;47.102;15.452;2023-05-10T12:43:42;19.70;65.20
21805;DHT22;11064;47.102;15.452;2023-05-10T12:46:10;19.70;67.30
21805;DHT22;11064;47.102;15.452;2023-05-10T12:48:37;19.60;68.90
21805;DHT22;11064;47.102;15.452;2023-05-10T12:51:04;19.10;70.00
21805;DHT22;11064;47.102;15.452;2023-05-10T12:53:31;18.60;69.30
21805;DHT22;11064;47.102;15.452;2023-05-10T12:55:57;18.70;70.80
21805;DHT22;11064;47.102;15.452;2023-05-10T12:58:23;18.60;71.90
21805;DHT22;11064;47.102;15.452;2023-05-10T13:00:49;18.60;73.60
21805;DHT22;11064;47.102;15.452;2023-05-10T13:03:17;18.40;73.30
21805;DHT22;11064;47.102;15.452;2023-05-10T13:05:42;18.40;74.80
21805;DHT22;11064;47.102;15.452;2023-05-10T13:08:08;18.40;75.70
21805;DHT22;11064;47.102;15.452;2023-05-10T13:10:34;18.10;75.40
21805;DHT22;11064;47.102;15.452;2023-05-10T13:13:00;18.10;74.60
21805;DHT22;11064;47.102;15.452;2023-05-10T13:15:26;18.10;74.70
21805;DHT22;11064;47.102;15.452;2023-05-10T13:17:54;17.90;75.00
21805;DHT22;11064;47.102;15.452;2023-05-10T13:20:20;18.00;75.70
21805;DHT22;11064;47.102;15.452;2023-05-10T13:22:46;17.90;76.30
21805;DHT22;11064;47.102;15.452;2023-05-10T13:25:13;17.60;78.00
21805;DHT22;11064;47.102;15.452;2023-05-10T13:27:39;17.60;78.60
21805;DHT22;11064;47.102;15.452;2023-05-10T13:30:07;17.60;78.30
21805;DHT22;11064;47.102;15.452;2023-05-10T13:32:33;17.60;79.30
21805;DHT22;11064;47.102;15.452;2023-05-10T13:34:59;17.60;76.80
21805;DHT22;11064;47.102;15.452;2023-05-10T13:37:24;17.80;77.00
21805;DHT22;11064;47.102;15.452;2023-05-10T13:39:50;18.10;76.20
21805;DHT22;11064;47.102;15.452;2023-05-10T13:42:17;18.20;76.50
21805;DHT22;11064;47.102;15.452;2023-05-10T13:44:43;18.50;76.00
21805;DHT22;11064;47.102;15.452;2023-05-10T13:47:09;18.30;75.00
21805;DHT22;11064;47.102;15.452;2023-05-10T13:49:36;18.30;75.20
21805;DHT22;11064;47.102;15.452;2023-05-10T13:52:01;18.50;75.40
21805;DHT22;11064;47.102;15.452;2023-05-10T13:54:35;18.50;75.20
21805;DHT22;11064;47.102;15.452;2023-05-10T13:57:01;18.60;75.80
21805;DHT22;11064;47.102;15.452;2023-05-10T13:59:27;18.80;74.70
21805;DHT22;11064;47.102;15.452;2023-05-10T14:01:53;18.70;72.40
21805;DHT22;11064;47.102;15.452;2023-05-10T14:04:18;19.10;73.90
21805;DHT22;11064;47.102;15.452;2023-05-10T14:06:44;19.00;73.60
21805;DHT22;11064;47.102;15.452;2023-05-10T14:09:10;19.20;70.30
21805;DHT22;11064;47.102;15.452;2023-05-10T14:11:36;19.20;73.70
21805;DHT22;11064;47.102;15.452;2023-05-10T14:14:02;19.10;72.90
21805;DHT22;11064;47.102;15.452;2023-05-10T14:16:27;19.10;73.10
21805;DHT22;11064;47.102;15.452;2023-05-10T14:18:53;19.20;71.70
21805;DHT22;11064;47.102;15.452;2023-05-10T14:21:19;19.40;73.00
21805;DHT22;11064;47.102;15.452;2023-05-10T14:23:45;19.40;72.70
21805;DHT22;11064;47.102;15.452;2023-05-10T14:26:11;19.30;72.70
21805;DHT22;11064;47.102;15.452;2023-05-10T14:28:36;19.30;70.20
21805;DHT22;11064;47.102;15.452;2023-05-10T14:31:02;19.50;70.20
21805;DHT22;11064;47.102;15.452;2023-05-10T14:33:28;19.60;71.40
21805;DHT22;11064;47.102;15.452;2023-05-10T14:35:54;19.40;70.80
21805;DHT22;11064;47.102;15.452;2023-05-10T14:38:22;19.30;67.00
21805;DHT22;11064;47.102;15.452;2023-05-10T14:40:49;18.70;67.40
21805;DHT22;11064;47.102;15.452;2023-05-10T14:43:15;18.70;68.70
21805;DHT22;11064;47.102;15.452;2023-05-10T14:45:40;18.80;68.00
21805;DHT22;11064;47.102;15.452;2023-05-10T14:48:06;18.90;68.60
21805;DHT22;11064;47.102;15.452;2023-05-10T14:50:36;19.10;68.50
21805;DHT22;11064;47.102;15.452;2023-05-10T14:53:02;19.10;70.10
21805;DHT22;11064;47.102;15.452;2023-05-10T14:55:28;19.00;67.40
21805;DHT22;11064;47.102;15.452;2023-05-10T14:57:54;18.90;68.60
21805;DHT22;11064;47.102;15.452;2023-05-10T15:00:20;18.90;68.80
21805;DHT22;11064;47.102;15.452;2023-05-10T15:02:46;19.10;67.10
21805;DHT22;11064;47.102;15.452;2023-05-10T15:05:13;19.20;67.70
21805;DHT22;11064;47.102;15.452;2023-05-10T15:07:38;19.50;66.90
21805;DHT22;11064;47.102;15.452;2023-05-10T15:10:05;19.80;67.20
21805;DHT22;11064;47.102;15.452;2023-05-10T15:12:31;19.80;63.90
21805;DHT22;11064;47.102;15.452;2023-05-10T15:14:57;19.70;67.10
21805;DHT22;11064;47.102;15.452;2023-05-10T15:17:23;19.80;68.30
21805;DHT22;11064;47.102;15.452;2023-05-10T15:19:48;19.90;65.60
21805;DHT22;11064;47.102;15.452;2023-05-10T15:22:15;19.90;65.20
21805;DHT22;11064;47.102;15.452;2023-05-10T15:24:40;19.40;66.50
21805;DHT22;11064;47.102;15.452;2023-05-10T15:27:06;19.10;71.00
21805;DHT22;11064;47.102;15.452;2023-05-10T15:29:32;18.90;73.00
21805;DHT22;11064;47.102;15.452;2023-05-10T15:32:01;18.60;72.70
21805;DHT22;11064;47.102;15.452;2023-05-10T15:34:28;18.20;74.00
21805;DHT22;11064;47.102;15.452;2023-05-10T15:36:53;17.90;75.30
21805;DHT22;11064;47.102;15.452;2023-05-10T15:39:19;17.50;74.50
21805;DHT22;11064;47.102;15.452;2023-05-10T15:41:45;17.20;73.70
21805;DHT22;11064;47.102;15.452;2023-05-10T15:44:11;17.10;77.60
21805;DHT22;11064;47.102;15.452;2023-05-10T15:46:37;16.90;76.70
21805;DHT22;11064;47.102;15.452;2023-05-10T15:49:03;16.90;76.70
21805;DHT22;11064;47.102;15.452;2023-05-10T15:51:29;17.00;76.80
21805;DHT22;11064;47.102;15.452;2023-05-10T15:53:55;16.90;77.70
21805;DHT22;11064;47.102;15.452;2023-05-10T15:56:21;17.10;77.20
21805;DHT22;11064;47.102;15.452;2023-05-10T15:58:47;17.20;76.40
21805;DHT22;11064;47.102;15.452;2023-05-10T16:01:13;17.60;75.90
21805;DHT22;11064;47.102;15.452;2023-05-10T16:03:39;17.80;74.90
21805;DHT22;11064;47.102;15.452;2023-05-10T16:06:05;18.10;73.30
21805;DHT22;11064;47.102;15.452;2023-05-10T16:08:31;18.30;72.10
21805;DHT22;11064;47.102;15.452;2023-05-10T16:10:58;18.30;73.30
21805;DHT22;11064;47.102;15.452;2023-05-10T16:13:25;17.80;71.20
21805;DHT22;11064;47.102;15.452;2023-05-10T16:15:50;17.80;72.10
21805;DHT22;11064;47.102;15.452;2023-05-10T16:18:16;17.60;76.30
21805;DHT22;11064;47.102;15.452;2023-05-10T16:20:43;17.30;75.70
21805;DHT22;11064;47.102;15.452;2023-05-10T16:23:09;16.90;76.70
21805;DHT22;11064;47.102;15.452;2023-05-10T16:25:35;16.70;77.80
21805;DHT22;11064;47.102;15.452;2023-05-10T16:28:02;16.50;79.70
21805;DHT22;11064;47.102;15.452;2023-05-10T16:30:28;16.40;83.10
21805;DHT22;11064;47.102;15.452;2023-05-10T16:32:59;16.40;83.40
21805;DHT22;11064;47.102;15.452;2023-05-10T16:35:26;16.30;83.70
21805;DHT22;11064;47.102;15.452;2023-05-10T16:37:52;16.10;81.30
21805;DHT22;11064;47.102;15.452;2023-05-10T16:40:18;16.10;82.70
21805;DHT22;11064;47.102;15.452;2023-05-10T16:42:44;15.80;82.60
21805;DHT22;11064;47.102;15.452;2023-05-10T16:45:11;15.80;83.40
21805;DHT22;11064;47.102;15.452;2023-05-10T16:47:38;15.70;84.30
21805;DHT22;11064;47.102;15.452;2023-05-10T16:50:06;15.50;83.90
21805;DHT22;11064;47.102;15.452;2023-05-10T16:52:32;15.30;86.20
21805;DHT22;11064;47.102;15.452;2023-05-10T16:54:59;15.20;85.80
21805;DHT22;11064;47.102;15.452;2023-05-10T16:57:25;15.10;85.40
21805;DHT22;11064;47.102;15.452;2023-05-10T16:59:51;15.10;85.10
21805;DHT22;11064;47.102;15.452;2023-05-10T17:02:18;15.10;86.00
21805;DHT22;11064;47.102;15.452;2023-05-10T17:04:44;15.00;85.20
21805;DHT22;11064;47.102;15.452;2023-05-10T17:07:10;15.00;86.20
21805;DHT22;11064;47.102;15.452;2023-05-10T17:09:40;15.10;87.90
21805;DHT22;11064;47.102;15.452;2023-05-10T17:12:06;15.10;86.70
21805;DHT22;11064;47.102;15.452;2023-05-10T17:14:32;15.10;87.70
21805;DHT22;11064;47.102;15.452;2023-05-10T17:16:59;15.20;86.20
21805;DHT22;11064;47.102;15.452;2023-05-10T17:19:25;15.10;87.40
21805;DHT22;11064;47.102;15.452;2023-05-10T17:21:51;15.10;87.70
21805;DHT22;11064;47.102;15.452;2023-05-10T17:24:16;14.90;87.80
21805;DHT22;11064;47.102;15.452;2023-05-10T17:26:44;14.90;87.80
21805;DHT22;11064;47.102;15.452;2023-05-10T17:29:10;14.80;87.50
21805;DHT22;11064;47.102;15.452;2023-05-10T17:31:36;14.60;88.00
21805;DHT22;11064;47.102;15.452;2023-05-10T17:34:01;14.60;89.10
21805;DHT22;11064;47.102;15.452;2023-05-10T17:36:27;14.50;89.50
21805;DHT22;11064;47.102;15.452;2023-05-10T17:38:53;14.30;90.40
21805;DHT22;11064;47.102;15.452;2023-05-10T17:41:19;14.20;89.90
21805;DHT22;11064;47.102;15.452;2023-05-10T17:43:46;14.20;90.90
21805;DHT22;11064;47.102;15.452;2023-05-10T17:46:11;14.10;91.10
21805;DHT22;11064;47.102;15.452;2023-05-10T17:48:37;14.10;91.60
21805;DHT22;11064;47.102;15.452;2023-05-10T17:51:03;14.00;91.60
21805;DHT22;11064;47.102;15.452;2023-05-10T17:53:30;13.90;91.30
21805;DHT22;11064;47.102;15.452;2023-05-10T17:55:56;13.80;91.50
21805;DHT22;11064;47.102;15.452;2023-05-10T17:58:23;13.80;91.60
21805;DHT22;11064;47.102;15.452;2023-05-10T18:00:51;13.80;91.70
21805;DHT22;11064;47.102;15.452;2023-05-10T18:03:17;13.80;92.10
21805;DHT22;11064;47.102;15.452;2023-05-10T18:05:43;13.70;92.70
21805;DHT22;11064;47.102;15.452;2023-05-10T18:08:10;13.70;92.30
21805;DHT22;11064;47.102;15.452;2023-05-10T18:10:36;13.60;92.50
21805;DHT22;11064;47.102;15.452;2023-05-10T18:13:02;13.60;92.70
21805;DHT22;11064;47.102;15.452;2023-05-10T18:15:33;13.50;92.70
21805;DHT22;11064;47.102;15.452;2023-05-10T18:18:03;13.50;93.10
21805;DHT22;11064;47.102;15.452;2023-05-10T18:20:30;13.50;94.30
21805;DHT22;11064;47.102;15.452;2023-05-10T18:22:56;13.50;93.10
21805;DHT22;11064;47.102;15.452;2023-05-10T18:25:23;13.50;93.00
21805;DHT22;11064;47.102;15.452;2023-05-10T18:27:49;13.50;92.60
21805;DHT22;11064;47.102;15.452;2023-05-10T18:30:15;13.50;92.80
21805;DHT22;11064;47.102;15.452;2023-05-10T18:32:41;13.50;92.80
21805;DHT22;11064;47.102;15.452;2023-05-10T18:35:07;13.50;92.90
21805;DHT22;11064;47.102;15.452;2023-05-10T18:37:34;13.50;92.60
21805;DHT22;11064;47.102;15.452;2023-05-10T18:40:00;13.50;93.00
21805;DHT22;11064;47.102;15.452;2023-05-10T18:42:26;13.40;92.90
21805;DHT22;11064;47.102;15.452;2023-05-10T18:44:53;13.50;92.70
21805;DHT22;11064;47.102;15.452;2023-05-10T18:47:19;13.40;92.90
21805;DHT22;11064;47.102;15.452;2023-05-10T18:49:45;13.40;93.00
21805;DHT22;11064;47.102;15.452;2023-05-10T18:52:11;13.40;92.70
21805;DHT22;11064;47.102;15.452;2023-05-10T18:54:37;13.40;92.90
21805;DHT22;11064;47.102;15.452;2023-05-10T18:57:03;13.40;92.60
21805;DHT22;11064;47.102;15.452;2023-05-10T18:59:29;13.40;93.10
21805;DHT22;11064;47.102;15.452;2023-05-10T19:01:55;13.40;92.70
21805;DHT22;11064;47.102;15.452;2023-05-10T19:04:21;13.40;92.80
21805;DHT22;11064;47.102;15.452;2023-05-10T19:06:48;13.40;92.80
21805;DHT22;11064;47.102;15.452;2023-05-10T19:09:14;13.40;93.10
21805;DHT22;11064;47.102;15.452;2023-05-10T19:11:40;13.40;92.70
21805;DHT22;11064;47.102;15.452;2023-05-10T19:14:08;13.40;92.50
21805;DHT22;11064;47.102;15.452;2023-05-10T19:16:33;13.50;92.60
21805;DHT22;11064;47.102;15.452;2023-05-10T19:18:59;13.50;92.60
21805;DHT22;11064;47.102;15.452;2023-05-10T19:21:25;13.50;92.20
21805;DHT22;11064;47.102;15.452;2023-05-10T19:23:53;13.50;92.20
21805;DHT22;11064;47.102;15.452;2023-05-10T19:26:19;13.50;92.60
21805;DHT22;11064;47.102;15.452;2023-05-10T19:28:45;13.40;93.00
21805;DHT22;11064;47.102;15.452;2023-05-10T19:31:12;13.40;92.80
21805;DHT22;11064;47.102;15.452;2023-05-10T19:33:38;13.40;92.80